Accueil
METAR-TAF:

METAR-TAF

Aéroports :

Aéroport international des îles Marshall

Majuro, Îles Marshall

latitude: 07-04N, longitude: 171-17E, altitude: 2 m

Observation

Le bulletin a été fait il y a 13 heures et 46 minutes, à 19:58 UTC
Vent 17 kt de est/nord-est
Température 28°C
Humidité 84%
Pression 1012 hPa
Visibilité: 24.1 km
Quelques nuages à une hauteur de 1500 ft
Nuages épars à une hauteur de 5000 ft
Nuages fragmentés à une hauteur de 12000 ft
Ciel couvert à une hauteur de 30000 ft

METAR: PKMJ 221958Z 07017KT 15SM FEW015 SCT050 BKN120 OVC300 28/25 A2987 RMK LAST

Heure: 21:44 (09:44 UTC)

Prévision

Le bulletin a été fait il y a 4 heures et 14 minutes, à 05:30 UTC
Prévision valable du 23 à 06 UTC au 24 à 06 UTC
Vent 16 kt de est/nord-est
Visibilité: 10 km
Quelques nuages à une hauteur de 1500 ft
Nuages épars à une hauteur de 5000 ft
averses à proximité

TAF: PKMJ 230530Z 2306/2406 07016KT P6SM VCSH FEW015 SCT050

Observations et prévisions météorologiques de plus de 4000 aéroports (messages METAR et TAF).

Les stations disponibles sont représentées par des disques jaunes et rouges sur la carte.

Passer la souris dessus pour voir le nom de la station.

Cliquer dessus pour voir les observations et prévisions météorologiques.

Pour changer de carte: cliquez sur les boutons verts avec une croix noire pour zoomer, sur le bouton vert avec un tiret pour effectuer un zoom arrière, ou sur les flèches vertes pour les cartes adjacentes.


METAR-TAF: